Time;durP1;ratioP1;P1;durP2;ratioP2;P2;SDS_P1;SDS_P2;PMS_P1;PMS_P2;Temp;Humidity;BMP_temperature;BMP_pressure;BME280_temperature;BME280_humidity;BME280_pressure;Samples;Min_cycle;Max_cycle;Signal;HPM_P1;HPM_P2
2023/07/01 03:17:12;;;;;;;0.75;0.43;;;;;;;;;;12275150;22;15053108;-89
2023/07/01 03:22:31;;;;;;;1.27;0.40;;;;;;;;;;12825403;22;20031;-88
2023/07/01 03:27:44;;;;;;;0.88;0.40;;;;;;;;;;12833254;23;20111;-88
2023/07/01 03:32:50;;;;;;;0.60;0.40;;;;;;;;;;12818696;23;20017;-89
2023/07/01 03:38:08;;;;;;;0.98;0.50;;;;;;;;;;12821975;23;20044;-89
2023/07/01 03:43:17;;;;;;;2.33;0.73;;;;;;;;;;12834611;23;20083;-88
2023/07/01 03:48:26;;;;;;;0.43;0.40;;;;;;;;;;12834369;23;20048;-88
2023/07/01 03:53:32;;;;;;;0.93;0.40;;;;;;;;;;12832265;23;20048;-88
2023/07/01 04:04:31;;;;;;;1.10;0.73;;;;;;;;;;12788699;23;20025;-90
2023/07/01 04:27:12;;;;;;;;;;;;;;;;;;12826273;23;20511;-91
2023/07/01 04:33:23;;;;;;;1.13;0.38;;;;;;;;;;12831146;23;19931;31
2023/07/01 04:38:28;;;;;;;0.53;0.50;;;;;;;;;;12663953;23;20457;-86
2023/07/01 04:43:31;;;;;;;1.70;0.60;;;;;;;;;;12640948;23;20021;-85
2023/07/01 04:48:35;;;;;;;0.68;0.60;;;;;;;;;;12640997;23;20021;-86
2023/07/01 04:53:40;;;;;;;0.80;0.60;;;;;;;;;;12642211;23;20064;-89
2023/07/01 04:58:44;;;;;;;3.95;0.68;;;;;;;;;;12641128;23;20032;-86
2023/07/01 05:03:47;;;;;;;0.82;0.60;;;;;;;;;;12666836;23;20032;-86
2023/07/01 05:08:53;;;;;;;0.55;0.55;;;;;;;;;;12669415;23;20092;-86
2023/07/01 05:13:56;;;;;;;1.13;0.60;;;;;;;;;;12667095;23;20028;-86
2023/07/01 05:19:00;;;;;;;2.17;0.50;;;;;;;;;;12640298;23;20101;-86
2023/07/01 05:24:08;;;;;;;4.63;0.70;;;;;;;;;;12636582;23;20037;-83
2023/07/01 05:29:11;;;;;;;1.05;0.70;;;;;;;;;;12656246;23;20036;-84
2023/07/01 05:34:15;;;;;;;0.65;0.65;;;;;;;;;;12629251;23;20044;-86
2023/07/01 05:39:20;;;;;;;2.40;0.95;;;;;;;;;;12639752;23;20084;-86
2023/07/01 05:44:24;;;;;;;2.40;1.27;;;;;;;;;;12637890;23;20025;-86
2023/07/01 05:49:28;;;;;;;1.58;0.98;;;;;;;;;;12637291;23;20113;-87
2023/07/01 05:54:34;;;;;;;1.50;1.00;;;;;;;;;;12657540;23;20049;-84
2023/07/01 05:59:37;;;;;;;2.17;0.90;;;;;;;;;;12629220;23;20073;-84
2023/07/01 06:04:43;;;;;;;2.38;1.10;;;;;;;;;;12628709;23;20026;-83
2023/07/01 06:09:49;;;;;;;1.38;1.08;;;;;;;;;;12669965;23;20026;-85
2023/07/01 06:14:52;;;;;;;1.20;0.82;;;;;;;;;;12668891;23;20473;-84
2023/07/01 06:19:56;;;;;;;2.03;1.10;;;;;;;;;;12629858;23;20505;-84
2023/07/01 06:25:01;;;;;;;1.85;0.95;;;;;;;;;;12627829;23;20034;-83
2023/07/01 06:30:05;;;;;;;3.28;1.00;;;;;;;;;;12630897;23;20112;-85
2023/07/01 06:35:09;;;;;;;1.50;1.05;;;;;;;;;;12654786;23;20017;-85
2023/07/01 06:40:14;;;;;;;2.58;0.73;;;;;;;;;;12665460;23;20081;-85
2023/07/01 06:45:17;;;;;;;0.95;0.70;;;;;;;;;;12625862;23;20055;-84
2023/07/01 06:50:21;;;;;;;1.95;1.00;;;;;;;;;;12629347;23;20026;-85
2023/07/01 06:55:26;;;;;;;2.95;1.30;;;;;;;;;;12628580;23;20104;-85
2023/07/01 07:00:30;;;;;;;2.05;1.30;;;;;;;;;;12636745;23;20033;-85
2023/07/01 07:05:33;;;;;;;1.90;1.05;;;;;;;;;;12636934;23;20488;-86
2023/07/01 07:10:38;;;;;;;1.33;1.05;;;;;;;;;;12662176;23;20053;-88
2023/07/01 07:15:42;;;;;;;2.90;1.35;;;;;;;;;;12636844;23;20022;-86
2023/07/01 07:20:46;;;;;;;3.38;1.25;;;;;;;;;;12638099;23;20080;-88
2023/07/01 07:25:51;;;;;;;2.28;1.10;;;;;;;;;;12655400;23;20022;-84
2023/07/01 07:30:54;;;;;;;4.75;1.58;;;;;;;;;;12654048;23;20028;-86
2023/07/01 07:35:58;;;;;;;2.53;1.38;;;;;;;;;;12654414;23;20050;-85
2023/07/01 07:41:11;;;;;;;1.55;1.00;;;;;;;;;;12628301;23;20049;-86
2023/07/01 07:46:16;;;;;;;1.80;0.77;;;;;;;;;;12567558;23;20019;-85
2023/07/01 07:51:26;;;;;;;1.48;1.05;;;;;;;;;;12570627;23;20471;-85
2023/07/01 07:56:31;;;;;;;3.03;0.80;;;;;;;;;;12597026;23;20018;-85
2023/07/01 08:01:35;;;;;;;2.75;1.25;;;;;;;;;;12571982;23;20046;-85
2023/07/01 08:06:41;;;;;;;2.22;1.10;;;;;;;;;;12577413;23;20123;-87
2023/07/01 08:11:46;;;;;;;2.42;0.90;;;;;;;;;;12578533;23;20027;-86
2023/07/01 08:16:49;;;;;;;2.05;0.80;;;;;;;;;;12575035;23;20466;-85
2023/07/01 08:21:54;;;;;;;2.25;1.00;;;;;;;;;;12571812;23;20614;-84
2023/07/01 08:26:59;;;;;;;0.80;0.80;;;;;;;;;;12571316;23;20018;-85
2023/07/01 08:32:03;;;;;;;1.30;0.90;;;;;;;;;;12573016;23;20022;-85
2023/07/01 08:37:07;;;;;;;1.08;0.77;;;;;;;;;;12596810;23;20097;-85
2023/07/01 08:42:19;;;;;;;3.05;0.88;;;;;;;;;;12598945;23;20040;-86
2023/07/01 08:47:23;;;;;;;0.98;0.70;;;;;;;;;;12578830;23;20355;-86
2023/07/01 08:52:29;;;;;;;2.53;0.70;;;;;;;;;;12603700;23;20500;-87
2023/07/01 08:57:34;;;;;;;1.25;0.90;;;;;;;;;;12577124;23;20049;-87
2023/07/01 09:02:38;;;;;;;0.60;0.60;;;;;;;;;;12597651;23;20466;-85
2023/07/01 09:07:42;;;;;;;1.02;0.70;;;;;;;;;;12572695;23;20611;-85
2023/07/01 09:12:48;;;;;;;1.10;0.75;;;;;;;;;;12568227;23;20034;-84
2023/07/01 09:17:52;;;;;;;1.00;0.88;;;;;;;;;;12569968;23;20582;-85
2023/07/01 09:23:00;;;;;;;1.40;0.88;;;;;;;;;;12604398;23;20069;-88
2023/07/01 09:28:05;;;;;;;2.00;1.00;;;;;;;;;;12566482;23;20036;-86
2023/07/01 09:33:11;;;;;;;1.48;0.70;;;;;;;;;;12566761;23;20513;-86
2023/07/01 09:38:15;;;;;;;1.55;1.00;;;;;;;;;;12564288;23;20446;-86
2023/07/01 09:43:20;;;;;;;0.73;0.52;;;;;;;;;;12590341;23;20026;-85
2023/07/01 09:48:27;;;;;;;0.60;0.55;;;;;;;;;;12567339;23;20018;-85
2023/07/01 09:53:35;;;;;;;0.70;0.68;;;;;;;;;;12572420;23;20018;-84
2023/07/01 09:58:44;;;;;;;0.82;0.63;;;;;;;;;;12592459;23;20034;-86
2023/07/01 10:03:51;;;;;;;2.60;1.10;;;;;;;;;;12595611;23;20106;-88
2023/07/01 10:08:55;;;;;;;0.80;0.77;;;;;;;;;;12570424;23;20499;-89
2023/07/01 10:14:26;;;;;;;0.98;0.60;;;;;;;;;;12624078;23;20026;-94
2023/07/01 10:19:37;;;;;;;1.85;0.63;;;;;;;;;;12628139;23;20041;-94
2023/07/01 10:24:43;;;;;;;1.00;0.80;;;;;;;;;;12639263;23;20021;-94
2023/07/01 10:30:02;;;;;;;1.58;0.88;;;;;;;;;;12622438;23;20053;-92
